sensor_id;sensor_type;location;lat;lon;timestamp;P1;durP1;ratioP1;P2;durP2;ratioP2
73557;SDS011;61829;53.286;10.434;2022-09-09T00:04:03;23.02;;;11.55;;
73557;SDS011;61829;53.286;10.434;2022-09-09T00:15:48;21.35;;;12.00;;
73557;SDS011;61829;53.286;10.434;2022-09-09T00:21:06;20.00;;;11.70;;
73557;SDS011;61829;53.286;10.434;2022-09-09T00:23:40;18.23;;;10.68;;
73557;SDS011;61829;53.286;10.434;2022-09-09T00:31:54;20.73;;;11.10;;
73557;SDS011;61829;53.286;10.434;2022-09-09T00:34:27;18.45;;;11.40;;
73557;SDS011;61829;53.286;10.434;2022-09-09T00:36:54;19.08;;;10.90;;
73557;SDS011;61829;53.286;10.434;2022-09-09T00:39:32;17.15;;;10.35;;
73557;SDS011;61829;53.286;10.434;2022-09-09T00:42:16;19.52;;;11.13;;
73557;SDS011;61829;53.286;10.434;2022-09-09T00:45:09;20.80;;;11.10;;
73557;SDS011;61829;53.286;10.434;2022-09-09T00:47:50;17.58;;;10.35;;
73557;SDS011;61829;53.286;10.434;2022-09-09T00:53:05;19.63;;;11.15;;
73557;SDS011;61829;53.286;10.434;2022-09-09T00:58:09;18.55;;;10.60;;
73557;SDS011;61829;53.286;10.434;2022-09-09T01:00:52;19.05;;;10.32;;
73557;SDS011;61829;53.286;10.434;2022-09-09T01:03:22;20.15;;;10.93;;
73557;SDS011;61829;53.286;10.434;2022-09-09T01:11:33;18.00;;;10.45;;
73557;SDS011;61829;53.286;10.434;2022-09-09T01:14:05;19.05;;;10.90;;
73557;SDS011;61829;53.286;10.434;2022-09-09T01:16:41;17.63;;;10.88;;
73557;SDS011;61829;53.286;10.434;2022-09-09T01:19:09;19.02;;;10.88;;
73557;SDS011;61829;53.286;10.434;2022-09-09T01:26:54;17.15;;;10.40;;
73557;SDS011;61829;53.286;10.434;2022-09-09T01:29:24;19.85;;;11.40;;
73557;SDS011;61829;53.286;10.434;2022-09-09T01:31:55;20.08;;;10.73;;
73557;SDS011;61829;53.286;10.434;2022-09-09T01:34:41;20.27;;;10.77;;
73557;SDS011;61829;53.286;10.434;2022-09-09T01:37:08;17.05;;;10.57;;
73557;SDS011;61829;53.286;10.434;2022-09-09T01:39:38;19.13;;;10.85;;
73557;SDS011;61829;53.286;10.434;2022-09-09T01:42:07;20.80;;;11.88;;
73557;SDS011;61829;53.286;10.434;2022-09-09T01:44:36;19.30;;;10.75;;
73557;SDS011;61829;53.286;10.434;2022-09-09T01:47:03;19.60;;;11.30;;
73557;SDS011;61829;53.286;10.434;2022-09-09T01:49:30;20.08;;;11.68;;
73557;SDS011;61829;53.286;10.434;2022-09-09T01:51:58;21.25;;;11.73;;
73557;SDS011;61829;53.286;10.434;2022-09-09T01:54:26;18.15;;;10.43;;
73557;SDS011;61829;53.286;10.434;2022-09-09T02:02:13;20.00;;;11.50;;
73557;SDS011;61829;53.286;10.434;2022-09-09T02:04:48;22.90;;;11.25;;
73557;SDS011;61829;53.286;10.434;2022-09-09T02:10:16;22.05;;;11.07;;
73557;SDS011;61829;53.286;10.434;2022-09-09T02:12:48;20.75;;;11.75;;
73557;SDS011;61829;53.286;10.434;2022-09-09T02:15:21;18.08;;;10.95;;
73557;SDS011;61829;53.286;10.434;2022-09-09T02:17:59;18.52;;;10.73;;
73557;SDS011;61829;53.286;10.434;2022-09-09T02:20:29;20.77;;;11.27;;
73557;SDS011;61829;53.286;10.434;2022-09-09T02:22:57;17.90;;;10.75;;
73557;SDS011;61829;53.286;10.434;2022-09-09T02:25:25;17.70;;;11.27;;
73557;SDS011;61829;53.286;10.434;2022-09-09T02:27:54;17.60;;;11.18;;
73557;SDS011;61829;53.286;10.434;2022-09-09T02:30:23;20.98;;;10.88;;
73557;SDS011;61829;53.286;10.434;2022-09-09T02:32:50;20.10;;;11.00;;
73557;SDS011;61829;53.286;10.434;2022-09-09T02:35:23;17.77;;;10.13;;
73557;SDS011;61829;53.286;10.434;2022-09-09T02:37:52;17.33;;;10.18;;
73557;SDS011;61829;53.286;10.434;2022-09-09T02:40:21;18.92;;;10.38;;
73557;SDS011;61829;53.286;10.434;2022-09-09T02:42:48;15.50;;;9.55;;
73557;SDS011;61829;53.286;10.434;2022-09-09T02:45:16;17.73;;;9.90;;
73557;SDS011;61829;53.286;10.434;2022-09-09T02:53:38;17.10;;;9.73;;
73557;SDS011;61829;53.286;10.434;2022-09-09T02:56:15;13.82;;;8.38;;
73557;SDS011;61829;53.286;10.434;2022-09-09T02:58:42;17.15;;;10.13;;
73557;SDS011;61829;53.286;10.434;2022-09-09T03:01:09;15.95;;;9.77;;
73557;SDS011;61829;53.286;10.434;2022-09-09T03:03:35;16.73;;;10.38;;
73557;SDS011;61829;53.286;10.434;2022-09-09T03:06:01;17.15;;;9.85;;
73557;SDS011;61829;53.286;10.434;2022-09-09T03:08:27;19.15;;;10.15;;
73557;SDS011;61829;53.286;10.434;2022-09-09T03:10:58;15.30;;;9.68;;
73557;SDS011;61829;53.286;10.434;2022-09-09T03:15:53;14.52;;;8.55;;
73557;SDS011;61829;53.286;10.434;2022-09-09T03:18:19;17.27;;;9.35;;
73557;SDS011;61829;53.286;10.434;2022-09-09T03:20:45;16.33;;;9.02;;
73557;SDS011;61829;53.286;10.434;2022-09-09T03:23:14;16.92;;;9.13;;
73557;SDS011;61829;53.286;10.434;2022-09-09T03:25:45;15.10;;;8.93;;
73557;SDS011;61829;53.286;10.434;2022-09-09T03:28:12;16.67;;;9.75;;
73557;SDS011;61829;53.286;10.434;2022-09-09T03:30:38;16.80;;;9.73;;
73557;SDS011;61829;53.286;10.434;2022-09-09T03:33:04;14.80;;;9.07;;
73557;SDS011;61829;53.286;10.434;2022-09-09T03:35:30;16.20;;;8.95;;
73557;SDS011;61829;53.286;10.434;2022-09-09T03:37:56;15.25;;;9.20;;
73557;SDS011;61829;53.286;10.434;2022-09-09T03:40:22;14.07;;;9.30;;
73557;SDS011;61829;53.286;10.434;2022-09-09T03:42:48;13.88;;;8.32;;
73557;SDS011;61829;53.286;10.434;2022-09-09T03:45:14;13.82;;;8.57;;
73557;SDS011;61829;53.286;10.434;2022-09-09T03:47:40;15.18;;;8.32;;
73557;SDS011;61829;53.286;10.434;2022-09-09T03:50:07;13.27;;;9.05;;
73557;SDS011;61829;53.286;10.434;2022-09-09T03:52:36;14.18;;;8.07;;
73557;SDS011;61829;53.286;10.434;2022-09-09T03:55:04;14.15;;;7.97;;
73557;SDS011;61829;53.286;10.434;2022-09-09T03:57:31;15.77;;;7.75;;
73557;SDS011;61829;53.286;10.434;2022-09-09T04:00:02;12.25;;;8.35;;
73557;SDS011;61829;53.286;10.434;2022-09-09T04:02:29;13.35;;;8.27;;
73557;SDS011;61829;53.286;10.434;2022-09-09T04:04:55;14.13;;;7.78;;
73557;SDS011;61829;53.286;10.434;2022-09-09T04:07:21;13.20;;;8.25;;
73557;SDS011;61829;53.286;10.434;2022-09-09T04:09:47;14.20;;;7.63;;
73557;SDS011;61829;53.286;10.434;2022-09-09T04:12:13;12.88;;;8.25;;
73557;SDS011;61829;53.286;10.434;2022-09-09T04:14:39;15.65;;;10.05;;
73557;SDS011;61829;53.286;10.434;2022-09-09T04:17:05;12.63;;;7.38;;
73557;SDS011;61829;53.286;10.434;2022-09-09T04:19:32;13.60;;;7.75;;
73557;SDS011;61829;53.286;10.434;2022-09-09T04:21:58;12.98;;;7.78;;
73557;SDS011;61829;53.286;10.434;2022-09-09T04:24:25;14.18;;;7.50;;
73557;SDS011;61829;53.286;10.434;2022-09-09T04:26:52;12.40;;;6.88;;
73557;SDS011;61829;53.286;10.434;2022-09-09T04:29:18;11.85;;;7.50;;
73557;SDS011;61829;53.286;10.434;2022-09-09T04:31:44;13.50;;;8.38;;
73557;SDS011;61829;53.286;10.434;2022-09-09T04:34:10;13.82;;;7.38;;
73557;SDS011;61829;53.286;10.434;2022-09-09T04:36:36;10.70;;;7.10;;
73557;SDS011;61829;53.286;10.434;2022-09-09T04:39:06;14.18;;;7.10;;
73557;SDS011;61829;53.286;10.434;2022-09-09T04:41:31;11.35;;;7.05;;
73557;SDS011;61829;53.286;10.434;2022-09-09T04:43:57;13.10;;;7.43;;
73557;SDS011;61829;53.286;10.434;2022-09-09T04:46:24;10.93;;;7.05;;
73557;SDS011;61829;53.286;10.434;2022-09-09T04:48:50;12.98;;;7.47;;
73557;SDS011;61829;53.286;10.434;2022-09-09T04:51:17;9.68;;;6.53;;
73557;SDS011;61829;53.286;10.434;2022-09-09T04:53:47;11.23;;;7.13;;
73557;SDS011;61829;53.286;10.434;2022-09-09T04:56:15;12.35;;;6.85;;
73557;SDS011;61829;53.286;10.434;2022-09-09T04:58:42;12.35;;;6.38;;
73557;SDS011;61829;53.286;10.434;2022-09-09T05:01:09;9.27;;;6.55;;
73557;SDS011;61829;53.286;10.434;2022-09-09T05:03:37;14.48;;;6.93;;
73557;SDS011;61829;53.286;10.434;2022-09-09T05:06:04;16.58;;;6.20;;
73557;SDS011;61829;53.286;10.434;2022-09-09T05:08:39;10.23;;;6.05;;
73557;SDS011;61829;53.286;10.434;2022-09-09T05:11:22;9.85;;;5.70;;
73557;SDS011;61829;53.286;10.434;2022-09-09T05:13:50;15.20;;;6.10;;
73557;SDS011;61829;53.286;10.434;2022-09-09T05:16:16;10.10;;;6.15;;
73557;SDS011;61829;53.286;10.434;2022-09-09T05:18:44;9.45;;;5.82;;
73557;SDS011;61829;53.286;10.434;2022-09-09T05:21:15;9.25;;;6.20;;
73557;SDS011;61829;53.286;10.434;2022-09-09T05:23:42;10.25;;;5.68;;
73557;SDS011;61829;53.286;10.434;2022-09-09T05:26:18;14.82;;;6.88;;
73557;SDS011;61829;53.286;10.434;2022-09-09T05:28:45;15.15;;;6.13;;
73557;SDS011;61829;53.286;10.434;2022-09-09T05:31:12;8.32;;;5.40;;
73557;SDS011;61829;53.286;10.434;2022-09-09T05:33:41;9.55;;;5.43;;
73557;SDS011;61829;53.286;10.434;2022-09-09T05:36:10;9.10;;;5.15;;
73557;SDS011;61829;53.286;10.434;2022-09-09T05:38:42;9.43;;;4.72;;
73557;SDS011;61829;53.286;10.434;2022-09-09T05:41:09;12.52;;;5.70;;
73557;SDS011;61829;53.286;10.434;2022-09-09T05:43:37;10.50;;;6.05;;
73557;SDS011;61829;53.286;10.434;2022-09-09T05:48:39;7.70;;;5.30;;
73557;SDS011;61829;53.286;10.434;2022-09-09T05:51:08;10.32;;;4.35;;
73557;SDS011;61829;53.286;10.434;2022-09-09T05:53:36;6.22;;;4.35;;
73557;SDS011;61829;53.286;10.434;2022-09-09T05:56:12;6.80;;;3.95;;
73557;SDS011;61829;53.286;10.434;2022-09-09T05:58:43;5.22;;;3.33;;
73557;SDS011;61829;53.286;10.434;2022-09-09T06:01:14;5.50;;;3.80;;
73557;SDS011;61829;53.286;10.434;2022-09-09T06:03:52;8.02;;;3.58;;
73557;SDS011;61829;53.286;10.434;2022-09-09T06:06:19;6.82;;;3.40;;
73557;SDS011;61829;53.286;10.434;2022-09-09T06:08:51;5.47;;;3.03;;
73557;SDS011;61829;53.286;10.434;2022-09-09T06:11:23;5.65;;;3.15;;
73557;SDS011;61829;53.286;10.434;2022-09-09T06:13:56;8.02;;;3.22;;
73557;SDS011;61829;53.286;10.434;2022-09-09T06:16:24;5.63;;;3.33;;
73557;SDS011;61829;53.286;10.434;2022-09-09T06:18:52;8.55;;;3.10;;
73557;SDS011;61829;53.286;10.434;2022-09-09T06:21:20;4.90;;;2.70;;
73557;SDS011;61829;53.286;10.434;2022-09-09T06:23:49;4.85;;;3.10;;
73557;SDS011;61829;53.286;10.434;2022-09-09T06:26:17;5.95;;;3.17;;
73557;SDS011;61829;53.286;10.434;2022-09-09T06:28:48;6.60;;;2.90;;
73557;SDS011;61829;53.286;10.434;2022-09-09T06:31:17;5.03;;;3.03;;
73557;SDS011;61829;53.286;10.434;2022-09-09T06:33:48;5.13;;;2.88;;
73557;SDS011;61829;53.286;10.434;2022-09-09T06:36:17;5.82;;;2.88;;
73557;SDS011;61829;53.286;10.434;2022-09-09T06:38:47;5.88;;;3.10;;
73557;SDS011;61829;53.286;10.434;2022-09-09T06:41:14;7.35;;;3.40;;
73557;SDS011;61829;53.286;10.434;2022-09-09T06:43:42;6.60;;;3.13;;
73557;SDS011;61829;53.286;10.434;2022-09-09T06:46:09;4.85;;;2.90;;
73557;SDS011;61829;53.286;10.434;2022-09-09T06:48:36;6.68;;;2.97;;
73557;SDS011;61829;53.286;10.434;2022-09-09T06:53:37;5.07;;;3.08;;
73557;SDS011;61829;53.286;10.434;2022-09-09T06:58:37;6.13;;;3.03;;
73557;SDS011;61829;53.286;10.434;2022-09-09T07:01:09;4.75;;;2.95;;
73557;SDS011;61829;53.286;10.434;2022-09-09T07:03:38;6.32;;;2.58;;
73557;SDS011;61829;53.286;10.434;2022-09-09T07:08:31;4.90;;;2.58;;
73557;SDS011;61829;53.286;10.434;2022-09-09T07:11:04;5.15;;;2.88;;
73557;SDS011;61829;53.286;10.434;2022-09-09T07:13:32;9.93;;;3.30;;
73557;SDS011;61829;53.286;10.434;2022-09-09T07:16:08;8.60;;;2.92;;
73557;SDS011;61829;53.286;10.434;2022-09-09T07:18:36;5.03;;;2.55;;
73557;SDS011;61829;53.286;10.434;2022-09-09T07:21:02;6.65;;;3.65;;
73557;SDS011;61829;53.286;10.434;2022-09-09T07:23:29;7.60;;;2.60;;
73557;SDS011;61829;53.286;10.434;2022-09-09T07:25:56;7.10;;;3.00;;
73557;SDS011;61829;53.286;10.434;2022-09-09T07:28:23;6.72;;;2.42;;
73557;SDS011;61829;53.286;10.434;2022-09-09T07:30:56;6.20;;;2.33;;
73557;SDS011;61829;53.286;10.434;2022-09-09T07:33:25;4.03;;;2.30;;
73557;SDS011;61829;53.286;10.434;2022-09-09T07:35:51;3.22;;;1.80;;
73557;SDS011;61829;53.286;10.434;2022-09-09T07:38:19;4.97;;;2.22;;
73557;SDS011;61829;53.286;10.434;2022-09-09T07:40:46;4.63;;;2.05;;
73557;SDS011;61829;53.286;10.434;2022-09-09T07:43:12;3.72;;;1.67;;
73557;SDS011;61829;53.286;10.434;2022-09-09T07:45:38;4.80;;;2.10;;
73557;SDS011;61829;53.286;10.434;2022-09-09T07:48:06;6.68;;;1.85;;
73557;SDS011;61829;53.286;10.434;2022-09-09T07:50:31;4.93;;;2.20;;
73557;SDS011;61829;53.286;10.434;2022-09-09T07:52:57;2.75;;;1.85;;
73557;SDS011;61829;53.286;10.434;2022-09-09T07:59:23;4.28;;;1.40;;
73557;SDS011;61829;53.286;10.434;2022-09-09T08:01:55;3.00;;;1.45;;
73557;SDS011;61829;53.286;10.434;2022-09-09T08:04:21;3.47;;;1.70;;
73557;SDS011;61829;53.286;10.434;2022-09-09T08:06:49;4.10;;;1.70;;
73557;SDS011;61829;53.286;10.434;2022-09-09T08:09:18;2.08;;;1.48;;
73557;SDS011;61829;53.286;10.434;2022-09-09T08:11:46;4.38;;;1.95;;
73557;SDS011;61829;53.286;10.434;2022-09-09T08:14:12;3.10;;;1.70;;
73557;SDS011;61829;53.286;10.434;2022-09-09T08:16:43;4.22;;;1.60;;
73557;SDS011;61829;53.286;10.434;2022-09-09T08:19:10;6.10;;;1.85;;
73557;SDS011;61829;53.286;10.434;2022-09-09T08:21:38;3.95;;;1.75;;
73557;SDS011;61829;53.286;10.434;2022-09-09T08:24:05;4.70;;;1.52;;
73557;SDS011;61829;53.286;10.434;2022-09-09T08:26:33;3.65;;;1.63;;
73557;SDS011;61829;53.286;10.434;2022-09-09T08:29:02;2.55;;;1.63;;
73557;SDS011;61829;53.286;10.434;2022-09-09T08:31:31;5.53;;;1.83;;
73557;SDS011;61829;53.286;10.434;2022-09-09T08:34:02;5.72;;;1.80;;
73557;SDS011;61829;53.286;10.434;2022-09-09T08:36:31;2.47;;;1.48;;
73557;SDS011;61829;53.286;10.434;2022-09-09T08:39:00;3.38;;;1.65;;
73557;SDS011;61829;53.286;10.434;2022-09-09T08:57:49;4.60;;;1.80;;
73557;SDS011;61829;53.286;10.434;2022-09-09T09:00:19;3.40;;;1.83;;
73557;SDS011;61829;53.286;10.434;2022-09-09T09:03:02;3.63;;;1.55;;
73557;SDS011;61829;53.286;10.434;2022-09-09T09:05:47;5.22;;;2.20;;
73557;SDS011;61829;53.286;10.434;2022-09-09T09:08:43;6.63;;;2.00;;
73557;SDS011;61829;53.286;10.434;2022-09-09T09:11:20;4.30;;;1.80;;
73557;SDS011;61829;53.286;10.434;2022-09-09T09:13:50;3.40;;;1.52;;
73557;SDS011;61829;53.286;10.434;2022-09-09T09:16:48;5.65;;;2.10;;
73557;SDS011;61829;53.286;10.434;2022-09-09T09:19:27;5.25;;;1.88;;
73557;SDS011;61829;53.286;10.434;2022-09-09T09:22:30;4.45;;;2.08;;
73557;SDS011;61829;53.286;10.434;2022-09-09T09:24:55;3.25;;;1.70;;
73557;SDS011;61829;53.286;10.434;2022-09-09T09:29:58;4.55;;;1.85;;
73557;SDS011;61829;53.286;10.434;2022-09-09T09:32:28;3.50;;;1.77;;
73557;SDS011;61829;53.286;10.434;2022-09-09T09:34:59;2.45;;;1.80;;
73557;SDS011;61829;53.286;10.434;2022-09-09T09:37:33;3.42;;;1.80;;
73557;SDS011;61829;53.286;10.434;2022-09-09T09:40:12;5.55;;;1.50;;
73557;SDS011;61829;53.286;10.434;2022-09-09T09:42:51;5.25;;;1.63;;
73557;SDS011;61829;53.286;10.434;2022-09-09T09:45:28;3.95;;;1.70;;
73557;SDS011;61829;53.286;10.434;2022-09-09T09:48:00;6.63;;;1.65;;
73557;SDS011;61829;53.286;10.434;2022-09-09T09:50:28;4.20;;;1.70;;
73557;SDS011;61829;53.286;10.434;2022-09-09T09:53:37;5.05;;;1.67;;
73557;SDS011;61829;53.286;10.434;2022-09-09T09:55:54;3.80;;;1.50;;
73557;SDS011;61829;53.286;10.434;2022-09-09T10:04:19;5.18;;;1.90;;
73557;SDS011;61829;53.286;10.434;2022-09-09T10:06:51;3.30;;;1.52;;
73557;SDS011;61829;53.286;10.434;2022-09-09T10:09:24;3.78;;;1.60;;
73557;SDS011;61829;53.286;10.434;2022-09-09T10:12:36;4.03;;;1.90;;
73557;SDS011;61829;53.286;10.434;2022-09-09T10:22:50;3.65;;;1.60;;
73557;SDS011;61829;53.286;10.434;2022-09-09T10:29:05;4.05;;;1.45;;
73557;SDS011;61829;53.286;10.434;2022-09-09T10:34:11;5.50;;;1.60;;
73557;SDS011;61829;53.286;10.434;2022-09-09T10:36:44;5.53;;;1.55;;
73557;SDS011;61829;53.286;10.434;2022-09-09T10:55:08;2.97;;;1.20;;
73557;SDS011;61829;53.286;10.434;2022-09-09T10:57:40;5.65;;;1.30;;
73557;SDS011;61829;53.286;10.434;2022-09-09T11:00:15;6.57;;;1.38;;
73557;SDS011;61829;53.286;10.434;2022-09-09T11:02:45;3.20;;;1.27;;
73557;SDS011;61829;53.286;10.434;2022-09-09T11:18:55;2.80;;;1.15;;
73557;SDS011;61829;53.286;10.434;2022-09-09T11:21:27;3.92;;;1.23;;
73557;SDS011;61829;53.286;10.434;2022-09-09T11:24:27;4.85;;;1.50;;
73557;SDS011;61829;53.286;10.434;2022-09-09T11:32:33;2.80;;;1.30;;
73557;SDS011;61829;53.286;10.434;2022-09-09T11:40:45;2.92;;;1.48;;
73557;SDS011;61829;53.286;10.434;2022-09-09T11:43:28;2.83;;;1.35;;
73557;SDS011;61829;53.286;10.434;2022-09-09T11:46:22;4.15;;;1.75;;
73557;SDS011;61829;53.286;10.434;2022-09-09T11:49:24;4.05;;;1.45;;
73557;SDS011;61829;53.286;10.434;2022-09-09T11:51:51;19.20;;;3.58;;
73557;SDS011;61829;53.286;10.434;2022-09-09T11:54:26;14.35;;;2.53;;
73557;SDS011;61829;53.286;10.434;2022-09-09T11:56:57;7.45;;;1.90;;
73557;SDS011;61829;53.286;10.434;2022-09-09T11:59:28;9.32;;;2.67;;
73557;SDS011;61829;53.286;10.434;2022-09-09T12:02:00;8.88;;;2.00;;
73557;SDS011;61829;53.286;10.434;2022-09-09T12:04:32;7.55;;;1.92;;
73557;SDS011;61829;53.286;10.434;2022-09-09T12:09:46;2.10;;;0.60;;
73557;SDS011;61829;53.286;10.434;2022-09-09T12:17:46;5.22;;;1.23;;
73557;SDS011;61829;53.286;10.434;2022-09-09T12:20:18;1.55;;;0.77;;
73557;SDS011;61829;53.286;10.434;2022-09-09T12:33:38;3.45;;;1.52;;
73557;SDS011;61829;53.286;10.434;2022-09-09T12:36:12;3.38;;;1.52;;
73557;SDS011;61829;53.286;10.434;2022-09-09T12:38:45;3.90;;;1.50;;
73557;SDS011;61829;53.286;10.434;2022-09-09T12:43:48;2.05;;;1.30;;
73557;SDS011;61829;53.286;10.434;2022-09-09T12:46:29;7.90;;;1.50;;
73557;SDS011;61829;53.286;10.434;2022-09-09T12:49:02;2.33;;;1.27;;
73557;SDS011;61829;53.286;10.434;2022-09-09T12:51:30;2.63;;;1.48;;
73557;SDS011;61829;53.286;10.434;2022-09-09T12:53:58;4.22;;;1.30;;
73557;SDS011;61829;53.286;10.434;2022-09-09T12:56:26;3.30;;;1.20;;
73557;SDS011;61829;53.286;10.434;2022-09-09T12:58:55;2.83;;;1.25;;
73557;SDS011;61829;53.286;10.434;2022-09-09T13:01:25;3.03;;;1.20;;
73557;SDS011;61829;53.286;10.434;2022-09-09T13:03:54;2.58;;;1.50;;
73557;SDS011;61829;53.286;10.434;2022-09-09T13:06:31;2.67;;;1.20;;
73557;SDS011;61829;53.286;10.434;2022-09-09T13:08:58;4.35;;;1.40;;
73557;SDS011;61829;53.286;10.434;2022-09-09T13:11:30;3.47;;;1.50;;
73557;SDS011;61829;53.286;10.434;2022-09-09T13:14:04;5.05;;;1.35;;
73557;SDS011;61829;53.286;10.434;2022-09-09T13:16:31;3.88;;;1.30;;
73557;SDS011;61829;53.286;10.434;2022-09-09T13:19:10;2.97;;;1.52;;
73557;SDS011;61829;53.286;10.434;2022-09-09T13:21:41;2.95;;;1.48;;
73557;SDS011;61829;53.286;10.434;2022-09-09T13:27:03;3.42;;;1.73;;
73557;SDS011;61829;53.286;10.434;2022-09-09T13:29:51;3.10;;;1.40;;
73557;SDS011;61829;53.286;10.434;2022-09-09T13:32:22;6.30;;;1.70;;
73557;SDS011;61829;53.286;10.434;2022-09-09T13:34:54;2.92;;;1.67;;
73557;SDS011;61829;53.286;10.434;2022-09-09T13:37:37;3.58;;;1.60;;
73557;SDS011;61829;53.286;10.434;2022-09-09T13:40:12;4.55;;;2.13;;
73557;SDS011;61829;53.286;10.434;2022-09-09T13:42:43;3.97;;;1.80;;
73557;SDS011;61829;53.286;10.434;2022-09-09T13:45:17;4.03;;;1.63;;
73557;SDS011;61829;53.286;10.434;2022-09-09T13:47:46;3.85;;;1.80;;
73557;SDS011;61829;53.286;10.434;2022-09-09T13:50:23;4.18;;;1.80;;
73557;SDS011;61829;53.286;10.434;2022-09-09T13:52:49;3.85;;;1.70;;
73557;SDS011;61829;53.286;10.434;2022-09-09T13:55:19;3.58;;;1.80;;
73557;SDS011;61829;53.286;10.434;2022-09-09T13:57:51;4.60;;;1.70;;
73557;SDS011;61829;53.286;10.434;2022-09-09T14:00:29;3.75;;;1.73;;
73557;SDS011;61829;53.286;10.434;2022-09-09T14:02:56;4.38;;;1.70;;
73557;SDS011;61829;53.286;10.434;2022-09-09T14:05:22;4.13;;;1.95;;
73557;SDS011;61829;53.286;10.434;2022-09-09T14:07:49;3.45;;;1.88;;
73557;SDS011;61829;53.286;10.434;2022-09-09T14:10:15;5.55;;;2.10;;
73557;SDS011;61829;53.286;10.434;2022-09-09T14:12:42;3.50;;;1.90;;
73557;SDS011;61829;53.286;10.434;2022-09-09T14:15:09;5.90;;;1.90;;
73557;SDS011;61829;53.286;10.434;2022-09-09T14:17:38;5.55;;;1.80;;
73557;SDS011;61829;53.286;10.434;2022-09-09T14:20:05;4.00;;;1.88;;
73557;SDS011;61829;53.286;10.434;2022-09-09T14:22:35;4.18;;;2.00;;
73557;SDS011;61829;53.286;10.434;2022-09-09T14:25:01;3.83;;;1.70;;
73557;SDS011;61829;53.286;10.434;2022-09-09T14:27:28;4.70;;;1.60;;
73557;SDS011;61829;53.286;10.434;2022-09-09T14:29:58;6.00;;;1.23;;
73557;SDS011;61829;53.286;10.434;2022-09-09T14:32:25;2.83;;;1.10;;
73557;SDS011;61829;53.286;10.434;2022-09-09T14:34:52;3.35;;;1.38;;
73557;SDS011;61829;53.286;10.434;2022-09-09T14:37:18;3.10;;;1.20;;
73557;SDS011;61829;53.286;10.434;2022-09-09T14:39:44;2.38;;;1.13;;
73557;SDS011;61829;53.286;10.434;2022-09-09T14:42:12;4.32;;;1.10;;
73557;SDS011;61829;53.286;10.434;2022-09-09T14:44:39;4.60;;;1.42;;
73557;SDS011;61829;53.286;10.434;2022-09-09T14:47:06;6.75;;;1.35;;
73557;SDS011;61829;53.286;10.434;2022-09-09T14:49:33;3.78;;;1.10;;
73557;SDS011;61829;53.286;10.434;2022-09-09T14:52:00;1.77;;;0.93;;
73557;SDS011;61829;53.286;10.434;2022-09-09T14:54:27;4.13;;;1.20;;
73557;SDS011;61829;53.286;10.434;2022-09-09T14:56:53;3.28;;;1.40;;
73557;SDS011;61829;53.286;10.434;2022-09-09T14:59:19;3.42;;;1.30;;
73557;SDS011;61829;53.286;10.434;2022-09-09T15:01:46;4.60;;;1.20;;
73557;SDS011;61829;53.286;10.434;2022-09-09T15:04:12;4.97;;;1.27;;
73557;SDS011;61829;53.286;10.434;2022-09-09T15:06:40;3.15;;;1.10;;
73557;SDS011;61829;53.286;10.434;2022-09-09T15:09:08;3.50;;;1.13;;
73557;SDS011;61829;53.286;10.434;2022-09-09T15:11:35;3.47;;;1.67;;
73557;SDS011;61829;53.286;10.434;2022-09-09T15:14:03;3.72;;;1.50;;
73557;SDS011;61829;53.286;10.434;2022-09-09T15:16:33;3.20;;;1.30;;
73557;SDS011;61829;53.286;10.434;2022-09-09T15:19:00;3.03;;;1.48;;
73557;SDS011;61829;53.286;10.434;2022-09-09T15:21:28;6.85;;;1.98;;
73557;SDS011;61829;53.286;10.434;2022-09-09T15:23:59;5.18;;;1.58;;
73557;SDS011;61829;53.286;10.434;2022-09-09T15:26:25;4.55;;;1.40;;
73557;SDS011;61829;53.286;10.434;2022-09-09T15:28:52;4.78;;;1.90;;
73557;SDS011;61829;53.286;10.434;2022-09-09T15:33:56;3.75;;;1.73;;
73557;SDS011;61829;53.286;10.434;2022-09-09T15:36:31;4.32;;;2.20;;
73557;SDS011;61829;53.286;10.434;2022-09-09T15:39:01;4.10;;;1.90;;
73557;SDS011;61829;53.286;10.434;2022-09-09T15:41:29;4.05;;;1.83;;
73557;SDS011;61829;53.286;10.434;2022-09-09T15:43:57;5.53;;;1.90;;
73557;SDS011;61829;53.286;10.434;2022-09-09T15:48:54;4.90;;;1.85;;
73557;SDS011;61829;53.286;10.434;2022-09-09T15:51:28;4.70;;;1.90;;
73557;SDS011;61829;53.286;10.434;2022-09-09T15:53:58;5.75;;;1.90;;
73557;SDS011;61829;53.286;10.434;2022-09-09T15:56:25;4.55;;;2.00;;
73557;SDS011;61829;53.286;10.434;2022-09-09T15:58:52;3.63;;;2.00;;
73557;SDS011;61829;53.286;10.434;2022-09-09T16:01:21;3.08;;;2.00;;
73557;SDS011;61829;53.286;10.434;2022-09-09T16:03:46;2.97;;;1.83;;
73557;SDS011;61829;53.286;10.434;2022-09-09T16:06:13;4.03;;;2.00;;
73557;SDS011;61829;53.286;10.434;2022-09-09T16:08:44;3.15;;;1.80;;
73557;SDS011;61829;53.286;10.434;2022-09-09T16:11:16;2.90;;;1.75;;
73557;SDS011;61829;53.286;10.434;2022-09-09T16:13:47;2.92;;;1.90;;
73557;SDS011;61829;53.286;10.434;2022-09-09T16:16:14;3.70;;;1.83;;
73557;SDS011;61829;53.286;10.434;2022-09-09T16:18:43;4.57;;;1.80;;
73557;SDS011;61829;53.286;10.434;2022-09-09T16:21:23;4.25;;;2.20;;
73557;SDS011;61829;53.286;10.434;2022-09-09T16:23:57;6.10;;;1.98;;
73557;SDS011;61829;53.286;10.434;2022-09-09T16:26:29;4.47;;;1.90;;
73557;SDS011;61829;53.286;10.434;2022-09-09T16:32:01;4.03;;;2.00;;
73557;SDS011;61829;53.286;10.434;2022-09-09T16:34:27;3.35;;;1.73;;
73557;SDS011;61829;53.286;10.434;2022-09-09T16:36:52;3.85;;;2.00;;
73557;SDS011;61829;53.286;10.434;2022-09-09T16:39:19;4.55;;;2.20;;
73557;SDS011;61829;53.286;10.434;2022-09-09T16:44:16;6.40;;;2.20;;
73557;SDS011;61829;53.286;10.434;2022-09-09T16:46:44;5.57;;;2.22;;
73557;SDS011;61829;53.286;10.434;2022-09-09T16:49:14;4.65;;;2.17;;
73557;SDS011;61829;53.286;10.434;2022-09-09T16:51:47;3.83;;;2.20;;
73557;SDS011;61829;53.286;10.434;2022-09-09T16:54:15;3.83;;;2.25;;
73557;SDS011;61829;53.286;10.434;2022-09-09T16:56:43;5.35;;;2.60;;
73557;SDS011;61829;53.286;10.434;2022-09-09T16:59:11;5.20;;;2.83;;
73557;SDS011;61829;53.286;10.434;2022-09-09T17:01:43;7.20;;;3.00;;
73557;SDS011;61829;53.286;10.434;2022-09-09T17:04:11;7.80;;;2.70;;
73557;SDS011;61829;53.286;10.434;2022-09-09T17:06:40;10.48;;;3.22;;
73557;SDS011;61829;53.286;10.434;2022-09-09T17:09:08;5.88;;;2.90;;
73557;SDS011;61829;53.286;10.434;2022-09-09T17:11:36;8.15;;;3.10;;
73557;SDS011;61829;53.286;10.434;2022-09-09T17:14:03;5.53;;;3.78;;
73557;SDS011;61829;53.286;10.434;2022-09-09T17:16:32;3.45;;;2.70;;
73557;SDS011;61829;53.286;10.434;2022-09-09T17:19:01;4.82;;;2.58;;
73557;SDS011;61829;53.286;10.434;2022-09-09T17:21:29;4.70;;;2.70;;
73557;SDS011;61829;53.286;10.434;2022-09-09T17:23:56;5.68;;;3.33;;
73557;SDS011;61829;53.286;10.434;2022-09-09T17:28:52;4.63;;;2.65;;
73557;SDS011;61829;53.286;10.434;2022-09-09T17:31:19;5.15;;;2.53;;
73557;SDS011;61829;53.286;10.434;2022-09-09T17:33:45;13.95;;;3.17;;
73557;SDS011;61829;53.286;10.434;2022-09-09T17:38:41;4.43;;;2.67;;
73557;SDS011;61829;53.286;10.434;2022-09-09T17:41:12;6.85;;;2.90;;
73557;SDS011;61829;53.286;10.434;2022-09-09T17:43:40;7.28;;;3.22;;
73557;SDS011;61829;53.286;10.434;2022-09-09T17:46:12;6.05;;;3.83;;
73557;SDS011;61829;53.286;10.434;2022-09-09T17:48:46;8.82;;;3.42;;
73557;SDS011;61829;53.286;10.434;2022-09-09T17:51:15;7.63;;;3.47;;
73557;SDS011;61829;53.286;10.434;2022-09-09T17:53:50;5.28;;;3.10;;